Time;durP1;ratioP1;P1;durP2;ratioP2;P2;SDS_P1;SDS_P2;PMS_P1;PMS_P2;Temp;Humidity;BMP_temperature;BMP_pressure;BME280_temperature;BME280_humidity;BME280_pressure;Samples;Min_cycle;Max_cycle;Signal;HPM_P1;HPM_P2
2022/09/03 00:01:01;;;;;;;4.10;2.90;;;15.30;99.90;;;;;;5049470;28;20046;-80
2022/09/03 00:03:54;;;;;;;2.90;2.33;;;15.30;99.90;;;;;;5049599;28;20427;-80
2022/09/03 00:06:56;;;;;;;4.82;2.50;;;15.20;95.50;;;;;;5026701;28;20044;-81
2022/09/03 00:09:52;;;;;;;4.27;2.10;;;15.30;84.80;;;;;;5020610;28;20065;-80
2022/09/03 00:12:45;;;;;;;2.55;1.92;;;15.40;76.30;;;;;;5031909;28;20049;-80
2022/09/03 00:15:35;;;;;;;3.58;2.10;;;15.40;55.00;;;;;;5038962;28;20081;-80
2022/09/03 00:18:27;;;;;;;3.72;2.10;;;15.40;50.50;;;;;;5050141;28;20518;-80
2022/09/03 00:21:41;;;;;;;3.47;1.90;;;15.30;32.90;;;;;;5044218;28;20042;-81
2022/09/03 00:24:35;;;;;;;5.00;2.38;;;15.30;27.70;;;;;;5019618;28;20050;-81
2022/09/03 00:27:26;;;;;;;6.70;2.28;;;15.20;26.40;;;;;;5019026;28;20120;-80
2022/09/03 00:30:15;;;;;;;5.90;2.10;;;15.20;32.30;;;;;;5028378;28;20064;-80
2022/09/03 00:33:13;;;;;;;3.45;2.00;;;15.20;31.40;;;;;;5038752;28;20056;-81
2022/09/03 00:36:17;;;;;;;5.05;2.00;;;15.20;28.80;;;;;;5036369;28;20476;-81
2022/09/03 00:39:19;;;;;;;4.10;3.38;;;15.20;35.10;;;;;;5029915;28;20396;-80
2022/09/03 00:42:28;;;;;;;4.65;3.63;;;15.30;99.90;;;;;;5020480;28;20401;-80
2022/09/03 00:45:43;;;;;;;6.07;3.70;;;15.20;99.90;;;;;;5025826;28;20428;-81
2022/09/03 00:48:52;;;;;;;3.95;3.00;;;15.10;99.90;;;;;;5019234;28;20123;-80
2022/09/03 00:52:04;;;;;;;8.30;3.05;;;15.10;99.90;;;;;;5012787;28;20158;-81
2022/09/03 00:55:26;;;;;;;3.85;2.40;;;15.00;99.90;;;;;;5034603;28;20041;-80
2022/09/03 00:58:42;;;;;;;4.05;2.90;;;15.00;99.90;;;;;;5018426;28;20104;-80
2022/09/03 01:01:54;;;;;;;7.40;2.70;;;15.00;99.90;;;;;;5027186;28;20045;-81
2022/09/03 01:05:18;;;;;;;5.68;2.70;;;15.00;99.90;;;;;;5019814;28;20042;-80
2022/09/03 01:08:31;;;;;;;2.70;2.35;;;15.10;99.90;;;;;;5027608;28;20050;-80
2022/09/03 01:11:44;;;;;;;4.60;2.85;;;15.20;99.90;;;;;;5027030;28;20080;-80
2022/09/03 01:14:37;;;;;;;2.92;2.60;;;15.10;99.90;;;;;;5032208;28;20050;-79
2022/09/03 01:17:51;;;;;;;2.15;1.88;;;15.10;99.90;;;;;;5025253;28;20058;-80
2022/09/03 01:20:54;;;;;;;5.28;1.98;;;15.10;78.40;;;;;;5025455;28;20072;-79
2022/09/03 01:23:55;;;;;;;4.22;1.90;;;15.20;51.70;;;;;;5030530;28;20097;-79
2022/09/03 01:27:00;;;;;;;2.53;1.75;;;15.20;73.40;;;;;;5031730;28;20088;-79
2022/09/03 01:30:02;;;;;;;4.18;2.20;;;15.10;91.20;;;;;;5030565;28;20049;-80
2022/09/03 01:32:55;;;;;;;3.28;2.15;;;15.10;93.50;;;;;;5030867;28;20045;-80
2022/09/03 01:35:54;;;;;;;4.68;2.67;;;15.00;99.90;;;;;;5029383;28;20412;-80
2022/09/03 01:39:01;;;;;;;2.33;1.98;;;15.00;99.90;;;;;;5013718;28;20181;-81
2022/09/03 01:42:25;;;;;;;3.47;2.00;;;15.00;99.90;;;;;;5010355;28;20041;-80
2022/09/03 01:45:35;;;;;;;3.63;2.28;;;15.00;99.90;;;;;;5030482;28;20124;-80
2022/09/03 01:48:25;;;;;;;3.42;2.67;;;15.00;99.90;;;;;;5020400;28;20045;-80
2022/09/03 01:51:24;;;;;;;6.70;3.40;;;15.00;99.90;;;;;;5021068;28;20045;-80
2022/09/03 01:54:34;;;;;;;4.43;3.25;;;15.00;99.90;;;;;;5030568;28;20057;-80
2022/09/03 01:57:50;;;;;;;4.25;2.80;;;14.90;99.90;;;;;;5029833;28;20135;-80
2022/09/03 02:00:40;;;;;;;3.15;2.80;;;14.80;99.90;;;;;;5013912;28;20128;-80
2022/09/03 02:03:39;;;;;;;7.03;3.72;;;14.80;99.90;;;;;;5027396;28;20049;-80
2022/09/03 02:06:30;;;;;;;8.00;3.47;;;14.80;99.90;;;;;;5028607;28;20049;-80
2022/09/03 02:09:18;;;;;;;5.60;3.90;;;14.80;99.90;;;;;;5031438;28;20076;-80
2022/09/03 02:12:17;;;;;;;4.13;3.63;;;14.80;99.90;;;;;;5024210;28;20064;-79
2022/09/03 02:15:13;;;;;;;4.43;3.50;;;14.80;99.90;;;;;;5034072;28;20048;-80
2022/09/03 02:18:03;;;;;;;5.90;3.33;;;14.90;99.90;;;;;;5030078;28;20192;-80
2022/09/03 02:20:53;;;;;;;3.53;3.08;;;14.90;99.90;;;;;;5033347;28;20042;-80
2022/09/03 02:23:41;;;;;;;4.93;2.97;;;14.90;99.90;;;;;;5033584;28;20045;-81
2022/09/03 02:26:30;;;;;;;3.42;2.33;;;15.00;99.90;;;;;;5026297;28;20426;-80
2022/09/03 02:29:20;;;;;;;3.28;2.28;;;15.10;99.90;;;;;;5030223;28;20353;-80
2022/09/03 02:32:09;;;;;;;5.53;2.15;;;15.10;99.90;;;;;;5013141;28;20061;-79
2022/09/03 02:35:00;;;;;;;3.67;2.05;;;15.20;95.70;;;;;;5016231;28;20045;-80
2022/09/03 02:37:49;;;;;;;3.25;2.42;;;15.20;91.90;;;;;;5026427;28;20054;-80
2022/09/03 02:40:36;;;;;;;2.92;2.10;;;15.10;95.60;;;;;;5029080;28;20042;-79
2022/09/03 02:43:26;;;;;;;4.15;2.50;;;15.10;99.60;;;;;;5026597;28;20087;-80
2022/09/03 02:46:20;;;;;;;5.38;2.65;;;14.90;99.90;;;;;;5034017;28;20124;-79
2022/09/03 02:49:09;;;;;;;3.75;2.50;;;14.80;99.90;;;;;;5031783;28;20038;-80
2022/09/03 02:52:04;;;;;;;3.58;2.83;;;14.60;99.90;;;;;;5026141;28;20102;-80
2022/09/03 02:54:51;;;;;;;4.68;3.38;;;14.60;99.90;;;;;;5028263;28;20096;-78
2022/09/03 02:57:41;;;;;;;5.75;3.75;;;14.60;99.90;;;;;;5024698;28;20828;-79
2022/09/03 03:00:30;;;;;;;4.60;3.38;;;14.50;99.90;;;;;;5029442;28;20077;-80
2022/09/03 03:03:17;;;;;;;3.75;3.20;;;14.40;99.90;;;;;;5023589;28;20133;-80
2022/09/03 03:06:05;;;;;;;5.85;3.20;;;14.30;99.90;;;;;;5034479;28;20179;-81
2022/09/03 03:08:56;;;;;;;4.97;3.10;;;14.20;99.90;;;;;;5022773;28;20060;-80
2022/09/03 03:11:43;;;;;;;5.22;3.22;;;14.10;99.90;;;;;;5028017;28;20050;-80
2022/09/03 03:14:31;;;;;;;3.35;3.05;;;14.00;99.90;;;;;;5024192;28;20125;-81
2022/09/03 03:17:20;;;;;;;4.38;3.90;;;13.90;99.90;;;;;;5025117;28;20046;-80
2022/09/03 03:20:08;;;;;;;4.72;3.58;;;13.90;99.90;;;;;;5031067;28;20338;-80
2022/09/03 03:22:55;;;;;;;6.30;3.17;;;13.80;99.90;;;;;;5030794;28;20523;-80
2022/09/03 03:25:42;;;;;;;6.25;3.40;;;13.90;99.90;;;;;;5035323;28;20407;-80
2022/09/03 03:28:33;;;;;;;4.15;3.35;;;13.80;99.90;;;;;;5032336;28;20120;-80
2022/09/03 03:31:44;;;;;;;5.45;3.85;;;14.00;99.90;;;;;;5017202;28;20160;-81
2022/09/03 03:34:31;;;;;;;7.10;3.30;;;14.20;99.90;;;;;;5031828;28;20081;-80
2022/09/03 03:37:18;;;;;;;5.57;3.45;;;14.20;99.90;;;;;;5035952;28;20123;-80
2022/09/03 03:40:06;;;;;;;3.28;2.80;;;14.30;99.90;;;;;;5026480;28;20064;-80
2022/09/03 03:42:56;;;;;;;5.68;3.45;;;14.30;99.90;;;;;;5023678;28;20045;-80
2022/09/03 03:45:43;;;;;;;4.78;3.35;;;14.40;99.90;;;;;;5035047;28;20130;-80
2022/09/03 03:48:31;;;;;;;6.50;3.83;;;14.30;99.90;;;;;;5030355;28;20137;-80
2022/09/03 03:51:19;;;;;;;4.03;3.60;;;14.30;99.90;;;;;;5034553;28;20049;-80
2022/09/03 03:54:06;;;;;;;4.57;3.38;;;14.30;99.90;;;;;;5032421;28;20196;-80
2022/09/03 03:56:53;;;;;;;5.80;3.72;;;14.40;99.90;;;;;;5020394;28;20128;-80
2022/09/03 03:59:44;;;;;;;4.18;3.47;;;14.30;99.90;;;;;;5021457;28;20187;-81
2022/09/03 04:06:23;;;;;;;5.85;3.70;;;14.30;99.90;;;;;;5024224;28;20076;-80
2022/09/03 04:09:13;;;;;;;3.83;3.13;;;14.20;99.90;;;;;;5023573;28;20069;-80
2022/09/03 04:12:01;;;;;;;4.10;3.72;;;14.30;99.90;;;;;;5026307;28;20077;-79
2022/09/03 04:14:48;;;;;;;8.07;4.25;;;14.30;99.90;;;;;;5033728;28;20091;-80
2022/09/03 04:17:35;;;;;;;6.15;3.70;;;14.30;99.90;;;;;;5034197;28;20057;-80
2022/09/03 04:20:22;;;;;;;7.97;4.05;;;14.40;99.90;;;;;;5022391;28;20134;-80
2022/09/03 04:23:09;;;;;;;5.88;4.30;;;14.40;99.90;;;;;;5033645;28;20108;-80
2022/09/03 04:25:57;;;;;;;4.45;4.05;;;14.80;99.90;;;;;;5027988;28;20488;-80
2022/09/03 04:28:44;;;;;;;5.38;3.38;;;14.80;99.90;;;;;;5033159;28;20112;-80
2022/09/03 04:31:32;;;;;;;12.82;4.50;;;14.80;99.90;;;;;;5031110;28;20143;-80
2022/09/03 04:34:20;;;;;;;6.65;3.88;;;14.70;99.90;;;;;;5034800;28;20088;-79
2022/09/03 04:37:08;;;;;;;6.13;4.72;;;14.60;99.90;;;;;;5029324;28;20045;-80
2022/09/03 04:39:55;;;;;;;6.20;4.30;;;14.60;99.90;;;;;;5027401;28;20050;-80
2022/09/03 04:42:43;;;;;;;4.45;4.05;;;14.70;99.90;;;;;;5032894;28;20357;-80
2022/09/03 04:45:30;;;;;;;6.03;4.30;;;14.70;99.90;;;;;;5036482;28;20052;-79
2022/09/03 04:48:17;;;;;;;7.88;4.88;;;14.70;99.90;;;;;;5031008;28;20042;-80
2022/09/03 04:51:13;;;;;;;5.55;4.32;;;14.70;99.90;;;;;;5034743;28;20383;-79
2022/09/03 04:54:01;;;;;;;6.45;4.43;;;14.70;99.90;;;;;;5035899;28;20072;-79
2022/09/03 04:56:48;;;;;;;6.50;4.35;;;14.70;99.90;;;;;;5015957;28;20060;-81
2022/09/03 04:59:36;;;;;;;8.80;4.80;;;14.70;99.90;;;;;;5039272;28;20049;-81
2022/09/03 05:02:26;;;;;;;5.93;3.97;;;14.70;99.90;;;;;;5046215;28;20045;-81
2022/09/03 05:05:14;;;;;;;6.32;4.20;;;14.80;99.90;;;;;;5041023;28;20034;-80
2022/09/03 05:08:01;;;;;;;5.20;4.70;;;14.80;99.90;;;;;;5034180;28;20042;-81
2022/09/03 05:10:58;;;;;;;7.07;4.93;;;14.90;99.90;;;;;;5034901;28;20104;-82
2022/09/03 05:13:47;;;;;;;5.07;4.57;;;15.00;99.90;;;;;;5047545;28;20045;-82
2022/09/03 05:16:35;;;;;;;7.55;5.32;;;15.00;99.90;;;;;;5057107;28;20037;-81
2022/09/03 05:19:22;;;;;;;5.32;4.82;;;15.10;99.90;;;;;;5050541;28;20030;-81
2022/09/03 05:22:12;;;;;;;5.88;4.90;;;15.20;99.90;;;;;;5044222;28;20092;-82
2022/09/03 05:24:59;;;;;;;6.88;5.50;;;15.30;99.90;;;;;;5035613;28;20049;-82
2022/09/03 05:27:46;;;;;;;6.13;5.03;;;15.30;99.90;;;;;;5048523;28;20153;-83
2022/09/03 05:30:35;;;;;;;5.85;4.93;;;15.30;99.90;;;;;;5050143;28;20050;-82
2022/09/03 05:33:22;;;;;;;10.25;4.80;;;15.40;99.90;;;;;;5049500;28;20100;-82
2022/09/03 05:36:13;;;;;;;5.82;5.22;;;15.50;99.90;;;;;;5033949;28;20153;-82
2022/09/03 05:39:00;;;;;;;7.00;5.18;;;15.60;99.90;;;;;;5022552;28;20123;-82
2022/09/03 05:41:51;;;;;;;7.53;5.47;;;15.70;99.90;;;;;;5042610;28;20111;-82
2022/09/03 05:44:38;;;;;;;7.60;5.20;;;15.80;99.90;;;;;;5010048;28;20061;-82
2022/09/03 05:47:27;;;;;;;9.57;4.75;;;15.90;99.90;;;;;;5029987;28;20038;-83
2022/09/03 05:50:17;;;;;;;5.45;4.78;;;16.00;99.90;;;;;;5028248;28;20045;-83
2022/09/03 05:53:06;;;;;;;7.63;5.32;;;16.00;99.90;;;;;;5030418;28;20069;-82
2022/09/03 05:56:16;;;;;;;6.45;5.55;;;16.10;99.90;;;;;;5033645;28;20484;-81
2022/09/03 05:59:10;;;;;;;6.63;5.00;;;16.10;99.90;;;;;;5021998;28;20060;-80
2022/09/03 06:01:57;;;;;;;9.95;5.93;;;16.00;99.90;;;;;;5015579;28;20056;-82
2022/09/03 06:04:46;;;;;;;7.78;5.55;;;15.90;99.90;;;;;;5019494;28;20104;-83
2022/09/03 06:07:33;;;;;;;5.45;4.95;;;16.00;99.90;;;;;;5010943;28;20054;-83
2022/09/03 06:10:20;;;;;;;8.48;5.10;;;16.00;99.90;;;;;;5032259;28;20599;-83
2022/09/03 06:13:13;;;;;;;5.63;5.03;;;16.00;99.90;;;;;;5031895;28;20045;-83
2022/09/03 06:16:04;;;;;;;8.55;5.53;;;16.00;99.90;;;;;;5022572;28;20057;-83
2022/09/03 06:18:52;;;;;;;8.63;5.55;;;16.10;99.90;;;;;;5008667;28;20420;-83
2022/09/03 06:21:42;;;;;;;6.13;5.22;;;16.10;99.90;;;;;;5030764;28;20042;-83
2022/09/03 06:24:29;;;;;;;5.60;5.00;;;16.00;99.90;;;;;;5011524;28;20433;-82
2022/09/03 06:27:16;;;;;;;8.68;5.20;;;16.10;99.90;;;;;;5031049;28;20052;-83
2022/09/03 06:30:05;;;;;;;7.30;5.50;;;16.10;99.90;;;;;;5031618;28;20046;-82
2022/09/03 06:32:52;;;;;;;7.05;5.38;;;16.30;99.90;;;;;;5024606;28;20060;-82
2022/09/03 06:35:40;;;;;;;5.72;4.70;;;16.40;99.90;;;;;;5024101;28;20404;-83
2022/09/03 06:38:34;;;;;;;7.20;4.75;;;16.50;99.90;;;;;;5002945;28;20042;-83
2022/09/03 06:41:29;;;;;;;9.32;4.40;;;16.60;99.90;;;;;;5033547;28;20049;-82
2022/09/03 06:44:17;;;;;;;8.43;4.80;;;16.70;99.90;;;;;;5019995;28;20341;-85
2022/09/03 06:47:04;;;;;;;4.47;4.07;;;16.70;99.90;;;;;;5027771;28;20156;-83
2022/09/03 06:49:51;;;;;;;5.72;4.45;;;16.80;99.90;;;;;;5025927;28;20045;-84
2022/09/03 06:52:41;;;;;;;4.75;4.35;;;16.90;99.90;;;;;;5033209;28;20065;-83
2022/09/03 06:55:28;;;;;;;6.75;4.35;;;17.00;99.90;;;;;;5032495;28;20211;-85
2022/09/03 06:58:17;;;;;;;5.30;4.18;;;17.00;99.90;;;;;;5011977;28;20045;-84
2022/09/03 07:01:09;;;;;;;7.20;3.95;;;17.10;99.90;;;;;;5029232;28;20073;-85
2022/09/03 07:03:59;;;;;;;4.80;4.00;;;17.20;99.90;;;;;;5013402;28;20046;-85
2022/09/03 07:06:47;;;;;;;7.72;4.57;;;17.30;99.90;;;;;;5019199;28;20042;-84
2022/09/03 07:09:37;;;;;;;5.80;4.20;;;17.30;99.90;;;;;;5029478;28;20046;-84
2022/09/03 07:12:35;;;;;;;4.32;3.83;;;17.30;99.90;;;;;;5018162;28;20041;-84
2022/09/03 07:15:22;;;;;;;6.15;4.30;;;17.40;99.90;;;;;;5028298;28;20064;-84
2022/09/03 07:18:12;;;;;;;4.20;3.80;;;17.60;99.90;;;;;;5029741;28;20417;-85
2022/09/03 07:21:03;;;;;;;5.38;4.25;;;17.70;99.90;;;;;;5032366;28;20064;-82
2022/09/03 07:23:52;;;;;;;5.45;4.07;;;17.80;99.90;;;;;;5012977;28;20069;-84
2022/09/03 07:26:47;;;;;;;4.50;4.10;;;17.90;99.90;;;;;;5034529;28;20052;-82
2022/09/03 07:29:34;;;;;;;5.10;3.75;;;18.00;99.90;;;;;;5021385;28;20052;-84
2022/09/03 07:32:22;;;;;;;5.15;4.10;;;18.00;99.90;;;;;;5028985;28;20056;-83
2022/09/03 07:35:09;;;;;;;5.68;3.92;;;18.20;99.90;;;;;;5025129;28;20088;-84
2022/09/03 07:37:56;;;;;;;6.70;3.88;;;18.30;99.90;;;;;;5019960;28;20046;-83
2022/09/03 07:40:43;;;;;;;6.47;4.25;;;18.40;99.90;;;;;;5019156;28;20085;-83
2022/09/03 07:43:45;;;;;;;4.40;3.65;;;18.60;99.90;;;;;;5026603;28;20046;-84
2022/09/03 07:46:37;;;;;;;3.77;3.43;;;18.70;99.90;;;;;;5003176;28;20123;-83
2022/09/03 07:49:24;;;;;;;8.25;3.63;;;18.90;99.90;;;;;;5029414;28;20441;-84
2022/09/03 07:52:11;;;;;;;4.18;3.35;;;19.00;96.60;;;;;;5021576;28;20073;-84
2022/09/03 07:55:04;;;;;;;4.10;3.38;;;19.50;95.20;;;;;;5027854;28;20432;-84
2022/09/03 07:57:56;;;;;;;4.90;3.30;;;20.00;62.40;;;;;;5021829;28;20137;-83
2022/09/03 08:00:43;;;;;;;3.75;3.42;;;20.50;30.00;;;;;;5030026;28;20046;-84
2022/09/03 08:03:30;;;;;;;3.92;2.80;;;20.80;16.80;;;;;;5031579;28;20052;-83
2022/09/03 08:06:24;;;;;;;3.40;2.80;;;20.90;1.00;;;;;;5028842;28;20056;-84
2022/09/03 08:09:13;;;;;;;4.82;2.85;;;20.80;3.50;;;;;;5034376;28;20124;-83
2022/09/03 08:12:01;;;;;;;4.28;2.72;;;20.80;1.00;;;;;;5034897;28;20064;-84
2022/09/03 08:14:48;;;;;;;9.38;3.22;;;20.80;1.00;;;;;;5022687;28;20062;-84
2022/09/03 08:17:35;;;;;;;3.25;2.72;;;20.90;1.00;;;;;;5031251;28;20041;-84
2022/09/03 08:20:22;;;;;;;2.67;2.35;;;21.40;1.00;;;;;;5026962;28;20041;-85
2022/09/03 08:23:10;;;;;;;2.88;2.60;;;22.00;1.00;;;;;;5034368;28;20097;-85
2022/09/03 08:26:00;;;;;;;3.75;2.80;;;21.60;1.00;;;;;;5036953;28;20045;-85
2022/09/03 08:28:50;;;;;;;2.70;2.50;;;21.40;1.00;;;;;;5025684;28;20068;-85
2022/09/03 08:31:37;;;;;;;2.92;2.38;;;21.20;1.00;;;;;;5034762;28;20176;-83
2022/09/03 08:34:25;;;;;;;3.75;2.80;;;21.10;1.00;;;;;;5031937;28;20124;-84
2022/09/03 08:37:12;;;;;;;3.55;2.70;;;20.80;1.00;;;;;;5025447;28;20050;-84
2022/09/03 08:39:59;;;;;;;5.93;2.47;;;20.90;1.00;;;;;;5015236;28;20073;-85
2022/09/03 08:43:10;;;;;;;3.47;2.33;;;21.30;1.00;;;;;;5006517;28;20037;-83
2022/09/03 08:45:58;;;;;;;5.47;2.65;;;21.60;1.00;;;;;;5034785;28;20120;-84
2022/09/03 08:48:47;;;;;;;2.92;2.63;;;22.10;1.00;;;;;;5033328;28;20046;-83
2022/09/03 08:51:36;;;;;;;4.25;2.22;;;23.00;1.00;;;;;;5013386;28;20049;-83
2022/09/03 08:54:28;;;;;;;2.50;1.95;;;23.80;1.00;;;;;;5017019;28;20052;-83
2022/09/03 08:57:19;;;;;;;2.78;2.00;;;24.00;1.00;;;;;;5023911;28;20054;-84
2022/09/03 09:00:07;;;;;;;2.70;2.40;;;24.10;1.00;;;;;;5028565;28;20045;-84
2022/09/03 09:03:25;;;;;;;2.67;2.17;;;23.40;1.00;;;;;;5018112;28;20491;-83
2022/09/03 09:06:36;;;;;;;4.07;2.97;;;22.80;1.00;;;;;;5023482;28;20384;-84
2022/09/03 09:09:23;;;;;;;2.63;2.40;;;22.70;1.00;;;;;;5018970;28;20046;-84
2022/09/03 09:12:37;;;;;;;2.50;2.30;;;22.80;1.00;;;;;;5023877;28;20064;-84
2022/09/03 09:15:46;;;;;;;3.45;2.50;;;22.30;1.00;;;;;;5024330;28;20046;-85
2022/09/03 09:19:14;;;;;;;6.05;2.20;;;21.70;1.00;;;;;;5019334;28;20061;-84
2022/09/03 09:22:17;;;;;;;2.42;2.22;;;21.90;1.00;;;;;;4981689;28;20060;-85
2022/09/03 09:25:15;;;;;;;3.65;2.22;;;22.40;1.00;;;;;;5020663;28;20073;-84
2022/09/03 09:28:39;;;;;;;3.40;2.20;;;22.90;1.00;;;;;;5034020;28;20404;-83
2022/09/03 09:31:29;;;;;;;2.67;2.30;;;24.10;1.00;;;;;;5007759;28;20052;-84
2022/09/03 09:34:21;;;;;;;4.90;2.10;;;25.60;1.00;;;;;;5025429;28;20041;-84
2022/09/03 09:37:12;;;;;;;2.20;1.90;;;25.40;1.00;;;;;;5032511;28;20373;-85
2022/09/03 09:40:02;;;;;;;3.58;2.20;;;25.30;1.00;;;;;;5010027;28;20064;-84
2022/09/03 09:42:50;;;;;;;2.63;2.40;;;24.90;1.00;;;;;;5019644;28;20165;-83
2022/09/03 09:45:42;;;;;;;2.45;2.25;;;24.70;1.00;;;;;;5019859;28;20123;-83
2022/09/03 09:48:34;;;;;;;3.03;2.53;;;24.60;1.00;;;;;;5020074;28;20057;-84
2022/09/03 09:51:29;;;;;;;2.10;2.00;;;25.00;1.00;;;;;;5011331;28;20041;-84
2022/09/03 09:54:27;;;;;;;2.53;2.08;;;25.10;1.00;;;;;;5027006;28;20074;-82
2022/09/03 09:57:25;;;;;;;2.70;2.10;;;24.40;1.00;;;;;;5030590;28;20086;-84
2022/09/03 10:00:17;;;;;;;2.92;2.50;;;23.60;1.00;;;;;;5028453;28;20052;-85
2022/09/03 10:03:13;;;;;;;2.20;2.00;;;23.20;1.00;;;;;;5018734;28;20448;-83
2022/09/03 10:09:34;;;;;;;2.40;2.20;;;23.20;1.00;;;;;;5027558;28;20038;-84
2022/09/03 10:12:27;;;;;;;3.40;2.28;;;23.50;1.00;;;;;;5017126;28;20116;-84
2022/09/03 10:15:39;;;;;;;2.70;2.30;;;23.50;1.00;;;;;;5031951;28;20049;-84
2022/09/03 10:18:41;;;;;;;4.10;2.50;;;24.50;1.00;;;;;;5033347;28;20046;-83
2022/09/03 10:22:06;;;;;;;4.70;1.98;;;26.20;1.00;;;;;;5031374;28;20156;-84
2022/09/03 10:25:03;;;;;;;4.20;2.60;;;26.40;1.00;;;;;;5029972;28;20060;-83
2022/09/03 10:27:54;;;;;;;3.65;2.58;;;26.70;1.00;;;;;;5034362;28;20045;-83
2022/09/03 10:30:57;;;;;;;3.25;2.17;;;26.60;1.00;;;;;;5030894;28;20037;-83
2022/09/03 10:33:59;;;;;;;2.45;2.25;;;26.40;1.00;;;;;;5027263;28;20057;-84
2022/09/03 10:37:20;;;;;;;2.83;2.42;;;25.80;1.00;;;;;;5020331;28;20108;-84
2022/09/03 10:40:48;;;;;;;2.50;2.30;;;24.50;1.00;;;;;;5020122;28;20128;-83
2022/09/03 10:43:54;;;;;;;3.28;2.97;;;24.10;1.00;;;;;;5019769;28;20056;-83
2022/09/03 10:47:18;;;;;;;2.70;2.40;;;24.00;1.00;;;;;;5017329;28;20053;-83
2022/09/03 10:50:14;;;;;;;5.65;2.78;;;24.10;1.00;;;;;;5031573;28;20049;-83
2022/09/03 10:53:31;;;;;;;4.20;3.03;;;23.80;1.00;;;;;;5020998;28;20437;-83
2022/09/03 10:56:43;;;;;;;2.95;2.63;;;23.40;1.00;;;;;;5017898;28;20068;-83
2022/09/03 10:59:52;;;;;;;4.97;2.30;;;23.00;1.00;;;;;;5016128;28;20084;-81
2022/09/03 11:03:06;;;;;;;4.00;2.75;;;23.20;1.00;;;;;;5026027;28;20177;-84
2022/09/03 11:06:14;;;;;;;2.47;2.28;;;23.30;1.00;;;;;;5022287;28;20124;-83
2022/09/03 11:09:40;;;;;;;3.92;2.30;;;23.30;1.00;;;;;;5022412;28;20092;-83
2022/09/03 11:12:33;;;;;;;3.72;2.75;;;22.90;1.00;;;;;;5020756;28;20448;-82
2022/09/03 11:15:30;;;;;;;2.72;2.30;;;22.60;1.00;;;;;;5034905;28;20038;-82
2022/09/03 11:18:39;;;;;;;3.15;2.22;;;22.30;1.00;;;;;;5032417;28;20374;-82
2022/09/03 11:21:30;;;;;;;2.67;2.38;;;22.10;1.00;;;;;;5032337;28;20128;-83
2022/09/03 11:24:27;;;;;;;2.85;2.63;;;21.80;1.00;;;;;;5003997;28;20315;-81
2022/09/03 11:27:35;;;;;;;2.80;2.60;;;21.60;1.00;;;;;;5033201;28;20045;-83
2022/09/03 11:31:00;;;;;;;3.42;2.72;;;21.50;1.00;;;;;;5022565;28;20428;-83
2022/09/03 11:33:57;;;;;;;3.00;2.70;;;21.30;1.00;;;;;;5012027;28;20097;-83
2022/09/03 11:36:47;;;;;;;8.48;3.28;;;21.20;1.00;;;;;;5038730;28;20049;-83
2022/09/03 11:39:40;;;;;;;3.33;3.03;;;21.00;1.00;;;;;;5032149;28;20420;-83
2022/09/03 11:42:32;;;;;;;3.95;3.33;;;20.70;1.00;;;;;;5019129;28;20104;-82
2022/09/03 11:45:35;;;;;;;5.40;3.50;;;20.10;28.00;;;;;;5036094;28;20112;-82
2022/09/03 11:48:36;;;;;;;5.53;4.50;;;19.40;99.90;;;;;;5036662;28;20045;-85
2022/09/03 11:51:29;;;;;;;9.00;4.50;;;18.80;99.90;;;;;;5020769;28;20159;-83
2022/09/03 11:54:19;;;;;;;8.93;5.40;;;18.30;99.90;;;;;;5016756;28;20049;-84
2022/09/03 11:57:20;;;;;;;6.60;4.50;;;17.90;99.90;;;;;;5036053;28;20207;-85
2022/09/03 12:00:13;;;;;;;8.27;3.70;;;17.10;1.00;;;;;;5036411;28;20049;-85
2022/09/03 12:03:02;;;;;;;6.68;3.00;;;16.20;1.00;;;;;;5021127;28;20045;-85
2022/09/03 12:06:05;;;;;;;4.07;2.55;;;15.60;7.00;;;;;;5023552;28;20049;-88
2022/09/03 12:08:55;;;;;;;3.42;2.70;;;15.20;99.90;;;;;;5034070;28;20100;-86
2022/09/03 12:12:26;;;;;;;7.72;3.33;;;14.90;99.90;;;;;;5029343;28;20125;-86
2022/09/03 12:15:22;;;;;;;5.15;2.85;;;14.70;99.90;;;;;;5038655;28;20057;-86
2022/09/03 12:18:18;;;;;;;5.80;3.10;;;14.60;1.00;;;;;;5023767;28;20050;-85
2022/09/03 12:21:09;;;;;;;3.78;1.70;;;14.60;1.00;;;;;;5032488;28;20049;-85
2022/09/03 12:23:56;;;;;;;2.65;1.83;;;14.60;99.90;;;;;;5018413;28;20042;-87
2022/09/03 12:26:44;;;;;;;4.22;2.40;;;14.60;99.90;;;;;;5034662;28;20053;-87
2022/09/03 12:29:34;;;;;;;4.40;2.75;;;14.60;99.90;;;;;;5030175;28;20041;-87
2022/09/03 12:32:36;;;;;;;5.05;2.95;;;14.60;99.90;;;;;;5036993;28;20107;-87
2022/09/03 12:35:24;;;;;;;2.65;1.38;;;14.70;99.90;;;;;;5009907;28;20042;-87
2022/09/03 12:38:32;;;;;;;2.33;1.45;;;14.90;99.90;;;;;;5009168;28;20125;-87
2022/09/03 12:41:37;;;;;;;2.08;1.48;;;15.00;99.90;;;;;;5028709;28;20041;-87
2022/09/03 12:44:28;;;;;;;4.32;2.58;;;15.00;99.90;;;;;;5037456;28;20053;-87
2022/09/03 12:47:18;;;;;;;3.25;1.88;;;15.20;99.90;;;;;;5037888;28;20053;-86
2022/09/03 12:50:25;;;;;;;3.67;2.28;;;15.20;99.90;;;;;;5036401;28;20045;-87
2022/09/03 12:53:28;;;;;;;1.80;1.45;;;15.40;1.00;;;;;;5033257;28;20133;-88
2022/09/03 12:56:21;;;;;;;2.22;1.75;;;15.50;1.00;;;;;;5028132;28;20092;-88
2022/09/03 12:59:16;;;;;;;5.82;1.98;;;15.60;1.00;;;;;;5011430;28;20451;-89
2022/09/03 13:02:30;;;;;;;4.03;2.17;;;15.70;1.00;;;;;;5031144;28;20041;-88
2022/09/03 13:05:52;;;;;;;2.58;1.80;;;15.80;1.00;;;;;;5021824;28;20053;-88
2022/09/03 13:08:48;;;;;;;3.40;1.80;;;16.10;13.80;;;;;;5020532;28;20041;-89
2022/09/03 13:11:36;;;;;;;5.55;1.75;;;16.20;1.00;;;;;;5027381;28;20050;-87
2022/09/03 13:14:24;;;;;;;1.98;1.50;;;16.50;1.00;;;;;;5038517;28;20075;-88
2022/09/03 13:17:29;;;;;;;1.55;1.40;;;17.00;1.00;;;;;;5026819;28;20041;-86
2022/09/03 13:20:36;;;;;;;5.65;1.63;;;17.60;99.90;;;;;;5019942;28;20034;-86
2022/09/03 13:23:56;;;;;;;1.67;1.40;;;18.90;1.00;;;;;;5034671;28;20084;-86
2022/09/03 13:27:17;;;;;;;2.20;1.35;;;19.70;99.90;;;;;;5035861;28;20054;-88
2022/09/03 13:30:10;;;;;;;3.10;1.42;;;21.50;99.90;;;;;;5036889;28;20087;-89
2022/09/03 13:33:04;;;;;;;3.97;1.45;;;21.80;99.90;;;;;;5029772;28;20058;-87
2022/09/03 13:36:34;;;;;;;1.88;1.50;;;21.50;99.90;;;;;;5025727;28;20463;-86
2022/09/03 13:39:39;;;;;;;1.80;1.50;;;20.70;99.90;;;;;;5006801;28;20041;-87
2022/09/03 13:42:34;;;;;;;2.85;1.77;;;20.20;99.90;;;;;;5033761;28;20073;-88
2022/09/03 13:45:40;;;;;;;2.42;1.77;;;19.90;99.90;;;;;;5017259;28;20038;-88
2022/09/03 13:51:43;;;;;;;2.50;2.30;;;19.40;99.90;;;;;;5024646;28;20477;-85
2022/09/03 13:54:46;;;;;;;5.45;2.03;;;19.00;99.90;;;;;;5019443;28;20453;-87
2022/09/03 13:58:18;;;;;;;1.95;1.50;;;19.90;1.00;;;;;;5026626;28;20420;-84
2022/09/03 14:01:19;;;;;;;2.63;1.48;;;22.10;99.90;;;;;;5024624;28;20523;-87
2022/09/03 14:04:20;;;;;;;1.98;1.30;;;23.60;99.90;;;;;;5033350;28;20046;-86
2022/09/03 14:07:43;;;;;;;1.65;0.95;;;24.50;99.90;;;;;;5032386;28;20049;-85
2022/09/03 14:10:45;;;;;;;2.40;1.17;;;26.40;6.50;;;;;;4998885;28;20046;-86
2022/09/03 14:14:04;;;;;;;1.88;1.05;;;26.20;1.00;;;;;;5023577;28;20049;-86
2022/09/03 14:17:08;;;;;;;5.53;1.30;;;25.40;1.00;;;;;;5031595;28;20477;-86
2022/09/03 14:20:30;;;;;;;1.67;1.20;;;24.50;1.00;;;;;;5014741;28;20037;-85
2022/09/03 14:23:24;;;;;;;2.00;1.35;;;23.10;13.60;;;;;;5032339;28;20057;-87
2022/09/03 14:26:32;;;;;;;1.98;1.20;;;23.70;37.60;;;;;;5029273;28;20041;-85
2022/09/03 14:29:34;;;;;;;2.33;1.25;;;24.60;1.00;;;;;;5029666;28;20480;-86
2022/09/03 14:32:35;;;;;;;2.45;1.10;;;24.30;1.00;;;;;;5029831;28;20057;-84
2022/09/03 14:35:44;;;;;;;1.65;1.30;;;24.40;1.00;;;;;;5024382;28;20122;-86
2022/09/03 14:38:45;;;;;;;2.67;1.30;;;23.80;1.00;;;;;;5010925;28;20073;-85
2022/09/03 14:42:09;;;;;;;3.70;1.73;;;21.80;4.30;;;;;;4994338;28;20042;-84
2022/09/03 14:45:17;;;;;;;1.50;1.40;;;20.90;51.60;;;;;;5016896;28;20042;-83
2022/09/03 14:48:27;;;;;;;1.58;1.45;;;20.60;71.70;;;;;;5000470;28;20044;-85
2022/09/03 14:51:39;;;;;;;1.92;1.65;;;20.80;97.00;;;;;;5018468;28;20037;-85
2022/09/03 14:54:50;;;;;;;5.07;1.65;;;21.30;99.90;;;;;;5013946;28;20077;-85
2022/09/03 14:58:20;;;;;;;3.80;1.13;;;22.00;81.80;;;;;;5017427;28;20465;-84
2022/09/03 15:01:24;;;;;;;3.72;1.77;;;22.60;33.90;;;;;;5014633;28;20045;-84
2022/09/03 15:04:38;;;;;;;3.33;1.33;;;23.10;7.60;;;;;;5012171;28;20089;-83
2022/09/03 15:07:42;;;;;;;1.40;1.10;;;23.70;1.00;;;;;;5012295;28;20077;-84
2022/09/03 15:10:38;;;;;;;2.75;1.20;;;24.20;1.00;;;;;;5012154;28;20045;-84
2022/09/03 15:13:35;;;;;;;1.65;1.23;;;24.60;1.00;;;;;;5014526;28;20061;-85
2022/09/03 15:16:42;;;;;;;4.75;1.20;;;25.20;1.00;;;;;;5010064;28;20046;-84
2022/09/03 15:19:42;;;;;;;4.55;1.30;;;26.50;1.00;;;;;;5011550;28;20054;-85
2022/09/03 15:22:32;;;;;;;1.65;1.05;;;26.10;1.00;;;;;;5008021;28;20054;-85
2022/09/03 15:25:41;;;;;;;1.95;1.23;;;25.10;1.00;;;;;;5012797;28;20053;-86
2022/09/03 15:28:50;;;;;;;3.25;1.20;;;25.10;1.00;;;;;;4990474;28;20049;-84
2022/09/03 15:31:56;;;;;;;2.22;1.30;;;26.10;1.00;;;;;;5003918;28;20045;-86
2022/09/03 15:35:01;;;;;;;2.38;1.40;;;25.20;1.00;;;;;;5019268;28;20054;-85